EXS05 LFLB-EGTE
Flight info
| Callsign | EXS05 |
|---|---|
| Flight time | N/A |
| Altitude | 36000 |
| Route | BUSIL2C BUSIL DCT AMORO DCT MOMIL DCT BAGBI DCT SIZZA DCT LAULY DCT BRY DCT CLM DCT KOPOR DCT SOSUN DCT SUBIP UM8 WAFFU/N0375F220 Y8 SAM L620 GIBSO DCT |
| Aircraft | A21N/M-SDE2E3FGHIRWXY/LB1 |
Departure
| Time | 2026-04-28 14:56 |
|---|---|
| Airport | Chambéry Aix les Bains airport (LFLB) |
Arrival
| Time | N/A |
|---|---|
| Airport | Exeter International Airport (EGTE) |
| Time | Latitude | Longitude | Altitude | Speed | Heading |
|---|---|---|---|---|---|
| 2026-04-28 14:31 | 45.63934 | 5.88328 | 781 ft | 0 kts | 87° |
| 2026-04-28 14:47 | 45.63934 | 5.88317 | 781 ft | 3 kts | 87° |
| 2026-04-28 14:47 | 45.63933 | 5.88298 | 781 ft | 3 kts | 87° |
| 2026-04-28 14:47 | 45.63932 | 5.88265 | 781 ft | 3 kts | 87° |
| 2026-04-28 14:48 | 45.63931 | 5.88231 | 781 ft | 3 kts | 87° |
| 2026-04-28 14:48 | 45.63930 | 5.88217 | 781 ft | 1 kts | 87° |
| 2026-04-28 14:53 | 45.63926 | 5.88240 | 781 ft | 11 kts | 109° |
| 2026-04-28 14:54 | 45.63847 | 5.88249 | 781 ft | 26 kts | 190° |
| 2026-04-28 14:54 | 45.63702 | 5.88236 | 783 ft | 39 kts | 176° |
| 2026-04-28 14:54 | 45.63391 | 5.88260 | 781 ft | 45 kts | 177° |
| 2026-04-28 14:54 | 45.63178 | 5.88252 | 781 ft | 27 kts | 217° |
| 2026-04-28 14:55 | 45.63179 | 5.88078 | 783 ft | 11 kts | 345° |
| 2026-04-28 14:55 | 45.63251 | 5.88068 | 783 ft | 9 kts | 4° |
| 2026-04-28 14:55 | 45.63410 | 5.88057 | 781 ft | 47 kts | 356° |
| 2026-04-28 14:55 | 45.63918 | 5.88015 | 784 ft | 101 kts | 356° |
| 2026-04-28 14:56 | 45.64807 | 5.87947 | 816 ft | 148 kts | 358° |
| 2026-04-28 14:56 | 45.65878 | 5.87880 | 1129 ft | 164 kts | 356° |
| 2026-04-28 14:56 | 45.67024 | 5.87780 | 1703 ft | 161 kts | 356° |
| 2026-04-28 14:56 | 45.68128 | 5.87680 | 2477 ft | 159 kts | 356° |
| 2026-04-28 14:57 | 45.69312 | 5.87576 | 2872 ft | 184 kts | 356° |
| 2026-04-28 14:57 | 45.70680 | 5.87458 | 3165 ft | 209 kts | 356° |
| 2026-04-28 14:57 | 45.72211 | 5.87329 | 3486 ft | 232 kts | 356° |
| 2026-04-28 14:57 | 45.73847 | 5.87145 | 4100 ft | 242 kts | 349° |
| 2026-04-28 14:58 | 45.75389 | 5.86226 | 4700 ft | 242 kts | 318° |
| 2026-04-28 14:58 | 45.76296 | 5.84233 | 4966 ft | 243 kts | 282° |
| 2026-04-28 14:58 | 45.76196 | 5.81873 | 5004 ft | 239 kts | 244° |
| 2026-04-28 14:58 | 45.75115 | 5.80117 | 5011 ft | 239 kts | 208° |
| 2026-04-28 14:59 | 45.73590 | 5.79122 | 5006 ft | 243 kts | 206° |
| 2026-04-28 14:59 | 45.72110 | 5.77935 | 5007 ft | 247 kts | 211° |
| 2026-04-28 14:59 | 45.63934 | 5.88328 | 5005 ft | 0 kts | 87° |